Terminal Aerodrome Forecast
Issued by NWS Cleveland, OH

Home | Current Version | Previous Version | Graphics & Text | Print | Product List | Glossary On
Versions: 1 2 3 4 5 6 7 8 9 10 11 12 13 14 15 16 17 18 19 20 21 22 23 24 25 26 27 28 29 30 31
858
FTUS41 KCLE 271130
TAFCLE
TAF
KCLE 271130Z 2712/2818 21010KT P6SM SCT050 BKN250
     FM280200 17004KT P6SM BKN250
      TEMPO 2809/2812 5SM BR=

USA.gov is the U.S. government's official web portal to all federal, state and local government web resources and services.